sensor_id;sensor_type;location;lat;lon;timestamp;temperature;humidity
31677;DHT22;18385;51.572;6.578;2022-12-31T00:01:18;17.00;72.30
31677;DHT22;18385;51.572;6.578;2022-12-31T00:03:48;16.90;72.90
31677;DHT22;18385;51.572;6.578;2022-12-31T00:06:23;16.90;72.30
31677;DHT22;18385;51.572;6.578;2022-12-31T00:09:00;17.00;72.30
31677;DHT22;18385;51.572;6.578;2022-12-31T00:11:28;16.90;72.20
31677;DHT22;18385;51.572;6.578;2022-12-31T00:13:55;16.90;72.30
31677;DHT22;18385;51.572;6.578;2022-12-31T00:16:34;16.90;72.90
31677;DHT22;18385;51.572;6.578;2022-12-31T00:19:01;16.80;72.40
31677;DHT22;18385;51.572;6.578;2022-12-31T00:21:30;16.70;72.50
31677;DHT22;18385;51.572;6.578;2022-12-31T00:23:56;16.60;72.60
31677;DHT22;18385;51.572;6.578;2022-12-31T00:26:25;16.60;72.70
31677;DHT22;18385;51.572;6.578;2022-12-31T00:28:52;16.60;72.80
31677;DHT22;18385;51.572;6.578;2022-12-31T00:31:30;16.50;72.90
31677;DHT22;18385;51.572;6.578;2022-12-31T00:33:57;16.50;73.00
31677;DHT22;18385;51.572;6.578;2022-12-31T00:36:30;16.50;73.00
31677;DHT22;18385;51.572;6.578;2022-12-31T00:38:57;16.50;73.00
31677;DHT22;18385;51.572;6.578;2022-12-31T00:41:25;16.60;73.00
31677;DHT22;18385;51.572;6.578;2022-12-31T00:43:51;16.60;73.00
31677;DHT22;18385;51.572;6.578;2022-12-31T00:46:17;16.50;72.90
31677;DHT22;18385;51.572;6.578;2022-12-31T00:48:44;16.50;73.10
31677;DHT22;18385;51.572;6.578;2022-12-31T00:51:12;16.50;73.20
31677;DHT22;18385;51.572;6.578;2022-12-31T00:53:38;16.50;73.20
31677;DHT22;18385;51.572;6.578;2022-12-31T00:56:07;16.50;73.20
31677;DHT22;18385;51.572;6.578;2022-12-31T00:58:34;16.50;73.30
31677;DHT22;18385;51.572;6.578;2022-12-31T01:03:50;16.50;73.50
31677;DHT22;18385;51.572;6.578;2022-12-31T01:06:16;16.40;73.50
31677;DHT22;18385;51.572;6.578;2022-12-31T01:08:42;16.40;73.50
31677;DHT22;18385;51.572;6.578;2022-12-31T01:11:10;16.40;73.60
31677;DHT22;18385;51.572;6.578;2022-12-31T01:13:52;16.40;73.60
31677;DHT22;18385;51.572;6.578;2022-12-31T01:16:24;16.40;73.60
31677;DHT22;18385;51.572;6.578;2022-12-31T01:18:50;16.50;73.70
31677;DHT22;18385;51.572;6.578;2022-12-31T01:21:17;16.50;73.70
31677;DHT22;18385;51.572;6.578;2022-12-31T01:23:43;16.50;73.70
31677;DHT22;18385;51.572;6.578;2022-12-31T01:26:10;16.50;73.70
31677;DHT22;18385;51.572;6.578;2022-12-31T01:28:37;16.60;73.70
31677;DHT22;18385;51.572;6.578;2022-12-31T01:31:08;16.60;73.70
31677;DHT22;18385;51.572;6.578;2022-12-31T01:33:35;16.70;73.70
31677;DHT22;18385;51.572;6.578;2022-12-31T01:36:02;16.70;73.70
31677;DHT22;18385;51.572;6.578;2022-12-31T01:38:28;16.70;73.60
31677;DHT22;18385;51.572;6.578;2022-12-31T01:40:53;16.80;73.70
31677;DHT22;18385;51.572;6.578;2022-12-31T01:43:19;16.80;73.80
31677;DHT22;18385;51.572;6.578;2022-12-31T01:45:48;16.70;73.70
31677;DHT22;18385;51.572;6.578;2022-12-31T01:48:20;16.70;73.80
31677;DHT22;18385;51.572;6.578;2022-12-31T01:50:47;16.70;73.90
31677;DHT22;18385;51.572;6.578;2022-12-31T01:53:14;16.80;74.00
31677;DHT22;18385;51.572;6.578;2022-12-31T01:55:55;16.90;74.10
31677;DHT22;18385;51.572;6.578;2022-12-31T01:58:33;16.90;74.10
31677;DHT22;18385;51.572;6.578;2022-12-31T02:01:01;16.90;74.20
31677;DHT22;18385;51.572;6.578;2022-12-31T02:03:27;17.00;74.20
31677;DHT22;18385;51.572;6.578;2022-12-31T02:05:58;17.00;74.20
31677;DHT22;18385;51.572;6.578;2022-12-31T02:08:25;17.10;74.20
31677;DHT22;18385;51.572;6.578;2022-12-31T02:10:51;17.20;74.10
31677;DHT22;18385;51.572;6.578;2022-12-31T02:13:17;17.20;74.00
31677;DHT22;18385;51.572;6.578;2022-12-31T02:18:49;17.40;74.10
31677;DHT22;18385;51.572;6.578;2022-12-31T02:27:11;17.50;73.90
31677;DHT22;18385;51.572;6.578;2022-12-31T02:35:09;17.50;73.80
31677;DHT22;18385;51.572;6.578;2022-12-31T02:37:37;17.60;73.90
31677;DHT22;18385;51.572;6.578;2022-12-31T02:40:07;17.60;74.00
31677;DHT22;18385;51.572;6.578;2022-12-31T02:42:34;17.60;73.80
31677;DHT22;18385;51.572;6.578;2022-12-31T02:44:59;17.70;73.70
31677;DHT22;18385;51.572;6.578;2022-12-31T02:47:52;17.70;73.60
31677;DHT22;18385;51.572;6.578;2022-12-31T02:56:21;17.50;73.10
31677;DHT22;18385;51.572;6.578;2022-12-31T02:59:03;17.20;73.70
31677;DHT22;18385;51.572;6.578;2022-12-31T03:01:56;16.90;74.40
31677;DHT22;18385;51.572;6.578;2022-12-31T03:04:45;16.80;75.00
31677;DHT22;18385;51.572;6.578;2022-12-31T03:07:15;16.70;75.20
31677;DHT22;18385;51.572;6.578;2022-12-31T03:09:42;16.70;75.30
31677;DHT22;18385;51.572;6.578;2022-12-31T03:12:09;16.60;75.20
31677;DHT22;18385;51.572;6.578;2022-12-31T03:14:53;16.60;75.30
31677;DHT22;18385;51.572;6.578;2022-12-31T03:17:19;16.60;75.40
31677;DHT22;18385;51.572;6.578;2022-12-31T03:19:45;16.70;75.50
31677;DHT22;18385;51.572;6.578;2022-12-31T03:22:30;16.70;75.50
31677;DHT22;18385;51.572;6.578;2022-12-31T03:24:57;16.70;75.70
31677;DHT22;18385;51.572;6.578;2022-12-31T03:27:44;16.70;75.60
31677;DHT22;18385;51.572;6.578;2022-12-31T03:30:11;16.60;75.60
31677;DHT22;18385;51.572;6.578;2022-12-31T03:32:36;16.60;75.70
31677;DHT22;18385;51.572;6.578;2022-12-31T03:35:02;16.60;75.70
31677;DHT22;18385;51.572;6.578;2022-12-31T03:37:28;16.60;75.70
31677;DHT22;18385;51.572;6.578;2022-12-31T03:39:54;16.50;75.80
31677;DHT22;18385;51.572;6.578;2022-12-31T03:42:19;16.60;76.00
31677;DHT22;18385;51.572;6.578;2022-12-31T03:44:45;16.50;75.90
31677;DHT22;18385;51.572;6.578;2022-12-31T03:47:11;16.50;76.00
31677;DHT22;18385;51.572;6.578;2022-12-31T03:49:36;16.40;76.00
31677;DHT22;18385;51.572;6.578;2022-12-31T03:52:02;16.40;76.10
31677;DHT22;18385;51.572;6.578;2022-12-31T03:54:31;16.40;76.00
31677;DHT22;18385;51.572;6.578;2022-12-31T03:56:57;16.40;76.10
31677;DHT22;18385;51.572;6.578;2022-12-31T03:59:23;16.30;76.20
31677;DHT22;18385;51.572;6.578;2022-12-31T04:01:48;16.30;76.30
31677;DHT22;18385;51.572;6.578;2022-12-31T04:04:14;16.40;76.40
31677;DHT22;18385;51.572;6.578;2022-12-31T04:06:40;16.30;76.30
31677;DHT22;18385;51.572;6.578;2022-12-31T04:09:05;16.40;76.40
31677;DHT22;18385;51.572;6.578;2022-12-31T04:11:31;16.40;76.20
31677;DHT22;18385;51.572;6.578;2022-12-31T04:13:56;16.40;76.20
31677;DHT22;18385;51.572;6.578;2022-12-31T04:16:23;16.40;76.20
31677;DHT22;18385;51.572;6.578;2022-12-31T04:18:49;16.40;76.20
31677;DHT22;18385;51.572;6.578;2022-12-31T04:21:15;16.40;76.20
31677;DHT22;18385;51.572;6.578;2022-12-31T04:23:41;16.40;76.30
31677;DHT22;18385;51.572;6.578;2022-12-31T04:26:06;16.50;76.30
31677;DHT22;18385;51.572;6.578;2022-12-31T04:28:32;16.50;76.20
31677;DHT22;18385;51.572;6.578;2022-12-31T04:30:57;16.60;76.30
31677;DHT22;18385;51.572;6.578;2022-12-31T04:33:23;16.60;76.10
31677;DHT22;18385;51.572;6.578;2022-12-31T04:35:49;16.70;76.20
31677;DHT22;18385;51.572;6.578;2022-12-31T04:38:14;16.80;76.20
31677;DHT22;18385;51.572;6.578;2022-12-31T04:40:40;16.80;76.20
31677;DHT22;18385;51.572;6.578;2022-12-31T04:43:25;16.90;76.20
31677;DHT22;18385;51.572;6.578;2022-12-31T04:45:51;17.00;76.00
31677;DHT22;18385;51.572;6.578;2022-12-31T04:48:17;17.20;76.00
31677;DHT22;18385;51.572;6.578;2022-12-31T04:50:42;17.30;75.90
31677;DHT22;18385;51.572;6.578;2022-12-31T04:53:08;17.40;75.70
31677;DHT22;18385;51.572;6.578;2022-12-31T04:55:33;17.50;75.60
31677;DHT22;18385;51.572;6.578;2022-12-31T04:57:59;17.50;75.50
31677;DHT22;18385;51.572;6.578;2022-12-31T05:00:25;17.60;75.40
31677;DHT22;18385;51.572;6.578;2022-12-31T05:02:50;17.70;75.40
31677;DHT22;18385;51.572;6.578;2022-12-31T05:05:16;17.70;75.10
31677;DHT22;18385;51.572;6.578;2022-12-31T05:07:41;17.80;75.10
31677;DHT22;18385;51.572;6.578;2022-12-31T05:10:07;17.80;74.90
31677;DHT22;18385;51.572;6.578;2022-12-31T05:12:33;17.80;74.70
31677;DHT22;18385;51.572;6.578;2022-12-31T05:14:59;17.90;74.70
31677;DHT22;18385;51.572;6.578;2022-12-31T05:17:24;17.90;74.60
31677;DHT22;18385;51.572;6.578;2022-12-31T05:19:50;18.00;74.50
31677;DHT22;18385;51.572;6.578;2022-12-31T05:22:15;18.10;74.50
31677;DHT22;18385;51.572;6.578;2022-12-31T05:24:53;18.20;74.20
31677;DHT22;18385;51.572;6.578;2022-12-31T05:27:19;18.20;74.00
31677;DHT22;18385;51.572;6.578;2022-12-31T05:29:45;18.20;73.90
31677;DHT22;18385;51.572;6.578;2022-12-31T05:32:11;18.30;73.80
31677;DHT22;18385;51.572;6.578;2022-12-31T05:34:36;18.30;73.50
31677;DHT22;18385;51.572;6.578;2022-12-31T05:37:02;18.40;73.50
31677;DHT22;18385;51.572;6.578;2022-12-31T05:39:28;18.40;73.30
31677;DHT22;18385;51.572;6.578;2022-12-31T05:41:53;18.50;73.20
31677;DHT22;18385;51.572;6.578;2022-12-31T05:44:19;18.60;73.20
31677;DHT22;18385;51.572;6.578;2022-12-31T05:46:44;18.60;72.90
31677;DHT22;18385;51.572;6.578;2022-12-31T05:49:11;18.60;72.60
31677;DHT22;18385;51.572;6.578;2022-12-31T05:51:37;18.70;72.50
31677;DHT22;18385;51.572;6.578;2022-12-31T05:54:03;18.70;72.50
31677;DHT22;18385;51.572;6.578;2022-12-31T05:56:29;18.70;72.30
31677;DHT22;18385;51.572;6.578;2022-12-31T05:58:55;18.70;72.00
31677;DHT22;18385;51.572;6.578;2022-12-31T06:01:21;18.70;72.10
31677;DHT22;18385;51.572;6.578;2022-12-31T06:03:46;18.70;72.00
31677;DHT22;18385;51.572;6.578;2022-12-31T06:06:12;18.80;72.00
31677;DHT22;18385;51.572;6.578;2022-12-31T06:08:38;18.80;71.70
31677;DHT22;18385;51.572;6.578;2022-12-31T06:11:04;18.70;71.70
31677;DHT22;18385;51.572;6.578;2022-12-31T06:13:30;18.80;71.80
31677;DHT22;18385;51.572;6.578;2022-12-31T06:15:56;18.70;71.60
31677;DHT22;18385;51.572;6.578;2022-12-31T06:18:21;18.70;71.60
31677;DHT22;18385;51.572;6.578;2022-12-31T06:20:47;18.70;71.50
31677;DHT22;18385;51.572;6.578;2022-12-31T06:23:13;18.70;71.40
31677;DHT22;18385;51.572;6.578;2022-12-31T06:25:38;18.60;71.60
31677;DHT22;18385;51.572;6.578;2022-12-31T06:28:04;18.70;71.60
31677;DHT22;18385;51.572;6.578;2022-12-31T06:30:31;18.70;71.40
31677;DHT22;18385;51.572;6.578;2022-12-31T06:32:56;18.70;71.30
31677;DHT22;18385;51.572;6.578;2022-12-31T06:35:22;18.70;71.10
31677;DHT22;18385;51.572;6.578;2022-12-31T06:37:48;18.70;71.10
31677;DHT22;18385;51.572;6.578;2022-12-31T06:40:14;18.70;71.00
31677;DHT22;18385;51.572;6.578;2022-12-31T06:42:40;18.70;71.00
31677;DHT22;18385;51.572;6.578;2022-12-31T06:45:07;18.70;70.90
31677;DHT22;18385;51.572;6.578;2022-12-31T06:47:32;18.70;71.00
31677;DHT22;18385;51.572;6.578;2022-12-31T06:49:58;18.80;71.10
31677;DHT22;18385;51.572;6.578;2022-12-31T06:52:24;18.80;70.80
31677;DHT22;18385;51.572;6.578;2022-12-31T06:54:50;18.90;70.70
31677;DHT22;18385;51.572;6.578;2022-12-31T06:57:16;18.90;70.60
31677;DHT22;18385;51.572;6.578;2022-12-31T06:59:42;19.00;70.40
31677;DHT22;18385;51.572;6.578;2022-12-31T07:05:12;19.00;69.90
31677;DHT22;18385;51.572;6.578;2022-12-31T07:08:09;19.10;70.00
31677;DHT22;18385;51.572;6.578;2022-12-31T07:21:06;19.20;69.50
31677;DHT22;18385;51.572;6.578;2022-12-31T07:23:33;19.20;69.40
31677;DHT22;18385;51.572;6.578;2022-12-31T07:26:04;19.20;69.30
31677;DHT22;18385;51.572;6.578;2022-12-31T07:31:46;19.20;69.20
31677;DHT22;18385;51.572;6.578;2022-12-31T07:37:17;19.20;68.90
31677;DHT22;18385;51.572;6.578;2022-12-31T07:40:02;19.20;68.90
31677;DHT22;18385;51.572;6.578;2022-12-31T07:42:41;19.30;68.70
31677;DHT22;18385;51.572;6.578;2022-12-31T07:45:19;19.30;68.70
31677;DHT22;18385;51.572;6.578;2022-12-31T07:47:49;19.30;68.70
31677;DHT22;18385;51.572;6.578;2022-12-31T07:50:16;19.30;69.50
31677;DHT22;18385;51.572;6.578;2022-12-31T07:52:43;19.30;68.50
31677;DHT22;18385;51.572;6.578;2022-12-31T07:55:09;19.20;68.50
31677;DHT22;18385;51.572;6.578;2022-12-31T07:57:58;19.20;68.40
31677;DHT22;18385;51.572;6.578;2022-12-31T08:00:26;19.20;68.40
31677;DHT22;18385;51.572;6.578;2022-12-31T08:06:06;19.20;68.20
31677;DHT22;18385;51.572;6.578;2022-12-31T08:11:31;19.20;68.30
31677;DHT22;18385;51.572;6.578;2022-12-31T08:14:00;19.20;68.10
31677;DHT22;18385;51.572;6.578;2022-12-31T08:16:27;19.20;68.10
31677;DHT22;18385;51.572;6.578;2022-12-31T08:18:53;19.30;68.00
31677;DHT22;18385;51.572;6.578;2022-12-31T08:24:10;19.40;67.80
31677;DHT22;18385;51.572;6.578;2022-12-31T08:29:50;19.50;68.20
31677;DHT22;18385;51.572;6.578;2022-12-31T08:32:34;19.50;67.20
31677;DHT22;18385;51.572;6.578;2022-12-31T08:43:06;19.60;66.90
31677;DHT22;18385;51.572;6.578;2022-12-31T08:45:42;19.60;66.80
31677;DHT22;18385;51.572;6.578;2022-12-31T08:48:20;19.70;66.50
31677;DHT22;18385;51.572;6.578;2022-12-31T08:50:49;19.70;66.40
31677;DHT22;18385;51.572;6.578;2022-12-31T08:53:15;19.70;66.50
31677;DHT22;18385;51.572;6.578;2022-12-31T08:55:43;19.80;66.30
31677;DHT22;18385;51.572;6.578;2022-12-31T09:00:57;19.80;65.80
31677;DHT22;18385;51.572;6.578;2022-12-31T09:03:54;19.80;65.90
31677;DHT22;18385;51.572;6.578;2022-12-31T09:09:05;19.80;65.60
31677;DHT22;18385;51.572;6.578;2022-12-31T09:12:33;19.90;65.60
31677;DHT22;18385;51.572;6.578;2022-12-31T09:15:12;19.90;65.50
31677;DHT22;18385;51.572;6.578;2022-12-31T09:17:46;19.90;65.40
31677;DHT22;18385;51.572;6.578;2022-12-31T09:20:25;19.90;65.00
31677;DHT22;18385;51.572;6.578;2022-12-31T09:22:53;20.00;65.00
31677;DHT22;18385;51.572;6.578;2022-12-31T09:25:20;20.00;65.00
31677;DHT22;18385;51.572;6.578;2022-12-31T09:30:44;20.10;64.90
31677;DHT22;18385;51.572;6.578;2022-12-31T09:33:16;20.10;64.80
31677;DHT22;18385;51.572;6.578;2022-12-31T09:35:48;20.10;64.70
31677;DHT22;18385;51.572;6.578;2022-12-31T09:41:27;20.20;64.40
31677;DHT22;18385;51.572;6.578;2022-12-31T09:44:53;20.20;64.30
31677;DHT22;18385;51.572;6.578;2022-12-31T09:52:56;20.20;64.00
31677;DHT22;18385;51.572;6.578;2022-12-31T09:58:40;20.30;63.80
31677;DHT22;18385;51.572;6.578;2022-12-31T10:01:53;20.20;63.70
31677;DHT22;18385;51.572;6.578;2022-12-31T10:04:38;20.20;63.80
31677;DHT22;18385;51.572;6.578;2022-12-31T10:07:39;20.20;63.60
31677;DHT22;18385;51.572;6.578;2022-12-31T10:10:12;20.20;63.60
31677;DHT22;18385;51.572;6.578;2022-12-31T10:13:00;20.20;63.70
31677;DHT22;18385;51.572;6.578;2022-12-31T10:32:51;20.30;63.30
31677;DHT22;18385;51.572;6.578;2022-12-31T10:43:50;20.40;63.00
31677;DHT22;18385;51.572;6.578;2022-12-31T10:52:05;20.40;62.60
31677;DHT22;18385;51.572;6.578;2022-12-31T11:03:18;20.60;62.50
31677;DHT22;18385;51.572;6.578;2022-12-31T11:14:41;20.80;61.90
31677;DHT22;18385;51.572;6.578;2022-12-31T11:17:20;20.80;61.50
31677;DHT22;18385;51.572;6.578;2022-12-31T11:40:31;20.70;61.00
31677;DHT22;18385;51.572;6.578;2022-12-31T11:48:20;20.70;60.80
31677;DHT22;18385;51.572;6.578;2022-12-31T11:56:22;20.90;60.60
31677;DHT22;18385;51.572;6.578;2022-12-31T11:58:56;20.90;60.50
31677;DHT22;18385;51.572;6.578;2022-12-31T12:01:30;20.90;60.20
31677;DHT22;18385;51.572;6.578;2022-12-31T12:03:59;20.90;60.00
31677;DHT22;18385;51.572;6.578;2022-12-31T12:06:31;20.80;60.00
31677;DHT22;18385;51.572;6.578;2022-12-31T12:09:14;20.80;59.80
31677;DHT22;18385;51.572;6.578;2022-12-31T12:11:41;20.80;59.90
31677;DHT22;18385;51.572;6.578;2022-12-31T12:14:25;20.80;59.90
31677;DHT22;18385;51.572;6.578;2022-12-31T12:16:55;20.80;59.90
31677;DHT22;18385;51.572;6.578;2022-12-31T12:19:23;20.70;59.90
31677;DHT22;18385;51.572;6.578;2022-12-31T12:21:50;20.60;59.90
31677;DHT22;18385;51.572;6.578;2022-12-31T12:24:24;20.60;60.00
31677;DHT22;18385;51.572;6.578;2022-12-31T12:26:50;20.60;59.90
31677;DHT22;18385;51.572;6.578;2022-12-31T12:29:22;20.50;59.90
31677;DHT22;18385;51.572;6.578;2022-12-31T12:34:35;20.50;59.80
31677;DHT22;18385;51.572;6.578;2022-12-31T12:37:02;20.50;59.70
31677;DHT22;18385;51.572;6.578;2022-12-31T12:39:30;20.40;59.70
31677;DHT22;18385;51.572;6.578;2022-12-31T12:42:00;20.40;59.70
31677;DHT22;18385;51.572;6.578;2022-12-31T12:44:28;20.40;59.80
31677;DHT22;18385;51.572;6.578;2022-12-31T12:46:54;20.30;59.90
31677;DHT22;18385;51.572;6.578;2022-12-31T12:49:26;20.30;60.00
31677;DHT22;18385;51.572;6.578;2022-12-31T12:58:02;20.20;60.10
31677;DHT22;18385;51.572;6.578;2022-12-31T13:18:27;20.10;60.10
31677;DHT22;18385;51.572;6.578;2022-12-31T13:29:18;20.20;60.10
31677;DHT22;18385;51.572;6.578;2022-12-31T13:31:46;20.20;60.10
31677;DHT22;18385;51.572;6.578;2022-12-31T13:34:17;20.20;60.20
31677;DHT22;18385;51.572;6.578;2022-12-31T13:36:46;20.10;60.00
31677;DHT22;18385;51.572;6.578;2022-12-31T13:39:19;20.10;60.00
31677;DHT22;18385;51.572;6.578;2022-12-31T13:42:22;20.10;59.90
31677;DHT22;18385;51.572;6.578;2022-12-31T13:44:58;20.20;60.00
31677;DHT22;18385;51.572;6.578;2022-12-31T13:47:35;20.10;59.80
31677;DHT22;18385;51.572;6.578;2022-12-31T13:52:48;20.10;59.70
31677;DHT22;18385;51.572;6.578;2022-12-31T13:57:49;20.10;59.80
31677;DHT22;18385;51.572;6.578;2022-12-31T14:05:37;19.90;59.60
31677;DHT22;18385;51.572;6.578;2022-12-31T14:08:06;19.80;60.20
31677;DHT22;18385;51.572;6.578;2022-12-31T14:19:40;19.80;59.70
31677;DHT22;18385;51.572;6.578;2022-12-31T14:22:35;19.80;59.60
31677;DHT22;18385;51.572;6.578;2022-12-31T14:25:13;19.80;59.60
31677;DHT22;18385;51.572;6.578;2022-12-31T14:27:42;19.90;59.60
31677;DHT22;18385;51.572;6.578;2022-12-31T14:30:15;19.90;59.40
31677;DHT22;18385;51.572;6.578;2022-12-31T14:35:39;19.90;59.20
31677;DHT22;18385;51.572;6.578;2022-12-31T14:48:53;19.80;59.00
31677;DHT22;18385;51.572;6.578;2022-12-31T14:51:21;19.70;58.80
31677;DHT22;18385;51.572;6.578;2022-12-31T14:53:53;19.70;58.90
31677;DHT22;18385;51.572;6.578;2022-12-31T14:56:39;19.70;58.90
31677;DHT22;18385;51.572;6.578;2022-12-31T14:59:26;19.60;58.80
31677;DHT22;18385;51.572;6.578;2022-12-31T15:01:53;19.60;58.80
31677;DHT22;18385;51.572;6.578;2022-12-31T15:05:01;19.60;58.80
31677;DHT22;18385;51.572;6.578;2022-12-31T15:07:35;19.60;58.80
31677;DHT22;18385;51.572;6.578;2022-12-31T15:13:06;19.50;58.70
31677;DHT22;18385;51.572;6.578;2022-12-31T15:15:56;19.50;58.70
31677;DHT22;18385;51.572;6.578;2022-12-31T15:18:58;19.50;58.80
31677;DHT22;18385;51.572;6.578;2022-12-31T15:24:27;19.30;58.90
31677;DHT22;18385;51.572;6.578;2022-12-31T15:27:00;19.40;59.10
31677;DHT22;18385;51.572;6.578;2022-12-31T15:29:33;19.30;59.10
31677;DHT22;18385;51.572;6.578;2022-12-31T15:32:02;19.20;59.10
31677;DHT22;18385;51.572;6.578;2022-12-31T15:37:00;19.20;59.20
31677;DHT22;18385;51.572;6.578;2022-12-31T15:41:55;19.10;59.40
31677;DHT22;18385;51.572;6.578;2022-12-31T15:44:27;19.10;59.40
31677;DHT22;18385;51.572;6.578;2022-12-31T15:47:32;19.00;59.40
31677;DHT22;18385;51.572;6.578;2022-12-31T15:50:03;19.00;59.50
31677;DHT22;18385;51.572;6.578;2022-12-31T15:52:42;19.00;59.60
31677;DHT22;18385;51.572;6.578;2022-12-31T15:55:20;18.90;59.70
31677;DHT22;18385;51.572;6.578;2022-12-31T15:57:47;18.90;59.90
31677;DHT22;18385;51.572;6.578;2022-12-31T16:00:19;18.80;59.90
31677;DHT22;18385;51.572;6.578;2022-12-31T16:02:47;18.80;60.00
31677;DHT22;18385;51.572;6.578;2022-12-31T16:05:22;18.80;60.00
31677;DHT22;18385;51.572;6.578;2022-12-31T16:07:52;18.70;60.00
31677;DHT22;18385;51.572;6.578;2022-12-31T16:10:29;18.70;60.10
31677;DHT22;18385;51.572;6.578;2022-12-31T16:12:56;18.60;60.20
31677;DHT22;18385;51.572;6.578;2022-12-31T16:15:28;18.70;60.30
31677;DHT22;18385;51.572;6.578;2022-12-31T16:18:03;18.60;60.30
31677;DHT22;18385;51.572;6.578;2022-12-31T16:20:31;18.60;60.40
31677;DHT22;18385;51.572;6.578;2022-12-31T16:23:00;18.60;60.40
31677;DHT22;18385;51.572;6.578;2022-12-31T16:25:28;18.60;60.40
31677;DHT22;18385;51.572;6.578;2022-12-31T16:27:55;18.60;60.40
31677;DHT22;18385;51.572;6.578;2022-12-31T16:30:25;18.60;60.40
31677;DHT22;18385;51.572;6.578;2022-12-31T16:32:58;18.60;60.40
31677;DHT22;18385;51.572;6.578;2022-12-31T16:35:52;18.60;60.50
31677;DHT22;18385;51.572;6.578;2022-12-31T16:38:15;18.70;60.50
31677;DHT22;18385;51.572;6.578;2022-12-31T16:40:45;18.70;60.60
31677;DHT22;18385;51.572;6.578;2022-12-31T16:43:36;18.70;60.60
31677;DHT22;18385;51.572;6.578;2022-12-31T16:46:22;18.70;60.50
31677;DHT22;18385;51.572;6.578;2022-12-31T16:51:21;18.70;60.50
31677;DHT22;18385;51.572;6.578;2022-12-31T16:53:49;18.70;60.60
31677;DHT22;18385;51.572;6.578;2022-12-31T16:56:25;18.70;60.50
31677;DHT22;18385;51.572;6.578;2022-12-31T16:58:59;18.70;60.40
31677;DHT22;18385;51.572;6.578;2022-12-31T17:01:28;18.70;60.50
31677;DHT22;18385;51.572;6.578;2022-12-31T17:03:58;18.70;60.30
31677;DHT22;18385;51.572;6.578;2022-12-31T17:06:37;18.70;60.20
31677;DHT22;18385;51.572;6.578;2022-12-31T17:09:10;18.80;60.30
31677;DHT22;18385;51.572;6.578;2022-12-31T17:11:49;18.80;60.20
31677;DHT22;18385;51.572;6.578;2022-12-31T17:14:25;18.80;60.10
31677;DHT22;18385;51.572;6.578;2022-12-31T17:19:42;18.70;60.00
31677;DHT22;18385;51.572;6.578;2022-12-31T17:22:26;18.80;60.10
31677;DHT22;18385;51.572;6.578;2022-12-31T17:25:04;18.70;60.00
31677;DHT22;18385;51.572;6.578;2022-12-31T17:27:32;18.70;59.90
31677;DHT22;18385;51.572;6.578;2022-12-31T17:33:00;18.70;59.90
31677;DHT22;18385;51.572;6.578;2022-12-31T17:35:32;18.70;59.80
31677;DHT22;18385;51.572;6.578;2022-12-31T17:40:46;18.70;59.80
31677;DHT22;18385;51.572;6.578;2022-12-31T17:43:16;18.70;59.60
31677;DHT22;18385;51.572;6.578;2022-12-31T17:45:43;18.70;59.60
31677;DHT22;18385;51.572;6.578;2022-12-31T17:48:15;18.60;59.50
31677;DHT22;18385;51.572;6.578;2022-12-31T17:50:55;18.60;59.40
31677;DHT22;18385;51.572;6.578;2022-12-31T17:53:21;18.60;59.50
31677;DHT22;18385;51.572;6.578;2022-12-31T17:55:49;18.50;59.50
31677;DHT22;18385;51.572;6.578;2022-12-31T18:00:54;18.50;59.50
31677;DHT22;18385;51.572;6.578;2022-12-31T18:03:20;18.50;59.40
31677;DHT22;18385;51.572;6.578;2022-12-31T18:05:46;18.50;59.40
31677;DHT22;18385;51.572;6.578;2022-12-31T18:08:11;18.50;59.30
31677;DHT22;18385;51.572;6.578;2022-12-31T18:10:39;18.50;59.20
31677;DHT22;18385;51.572;6.578;2022-12-31T18:13:12;18.50;59.20
31677;DHT22;18385;51.572;6.578;2022-12-31T18:15:39;18.40;59.00
31677;DHT22;18385;51.572;6.578;2022-12-31T18:18:31;18.40;59.00
31677;DHT22;18385;51.572;6.578;2022-12-31T18:21:02;18.40;59.00
31677;DHT22;18385;51.572;6.578;2022-12-31T18:23:41;18.30;58.90
31677;DHT22;18385;51.572;6.578;2022-12-31T18:26:15;18.40;58.90
31677;DHT22;18385;51.572;6.578;2022-12-31T18:28:41;18.30;58.80
31677;DHT22;18385;51.572;6.578;2022-12-31T18:31:23;18.20;58.70
31677;DHT22;18385;51.572;6.578;2022-12-31T18:33:50;18.20;58.70
31677;DHT22;18385;51.572;6.578;2022-12-31T18:36:17;18.20;58.80
31677;DHT22;18385;51.572;6.578;2022-12-31T18:38:44;18.20;58.80
31677;DHT22;18385;51.572;6.578;2022-12-31T18:41:19;18.20;58.80
31677;DHT22;18385;51.572;6.578;2022-12-31T18:43:46;18.20;58.60
31677;DHT22;18385;51.572;6.578;2022-12-31T18:46:13;18.20;58.60
31677;DHT22;18385;51.572;6.578;2022-12-31T18:48:39;18.20;58.40
31677;DHT22;18385;51.572;6.578;2022-12-31T18:51:09;18.30;58.40
31677;DHT22;18385;51.572;6.578;2022-12-31T18:53:37;18.30;58.20
31677;DHT22;18385;51.572;6.578;2022-12-31T18:56:02;18.30;58.10
31677;DHT22;18385;51.572;6.578;2022-12-31T18:58:28;18.30;58.70
31677;DHT22;18385;51.572;6.578;2022-12-31T19:00:54;18.20;57.90
31677;DHT22;18385;51.572;6.578;2022-12-31T19:03:23;18.20;57.80
31677;DHT22;18385;51.572;6.578;2022-12-31T19:05:49;18.20;57.80
31677;DHT22;18385;51.572;6.578;2022-12-31T19:08:19;18.20;57.70
31677;DHT22;18385;51.572;6.578;2022-12-31T19:10:47;18.20;57.60
31677;DHT22;18385;51.572;6.578;2022-12-31T19:13:15;18.20;57.50
31677;DHT22;18385;51.572;6.578;2022-12-31T19:18:08;18.20;57.40
31677;DHT22;18385;51.572;6.578;2022-12-31T19:20:34;18.10;57.20
31677;DHT22;18385;51.572;6.578;2022-12-31T19:23:00;18.20;57.30
31677;DHT22;18385;51.572;6.578;2022-12-31T19:25:29;18.10;57.20
31677;DHT22;18385;51.572;6.578;2022-12-31T19:27:56;18.10;57.10
31677;DHT22;18385;51.572;6.578;2022-12-31T19:30:28;18.10;57.10
31677;DHT22;18385;51.572;6.578;2022-12-31T19:32:54;18.10;56.90
31677;DHT22;18385;51.572;6.578;2022-12-31T19:35:20;18.10;56.90
31677;DHT22;18385;51.572;6.578;2022-12-31T19:37:49;18.10;56.80
31677;DHT22;18385;51.572;6.578;2022-12-31T19:40:23;18.10;56.60
31677;DHT22;18385;51.572;6.578;2022-12-31T19:42:50;18.20;56.60
31677;DHT22;18385;51.572;6.578;2022-12-31T19:45:18;18.20;56.50
31677;DHT22;18385;51.572;6.578;2022-12-31T19:47:44;18.20;56.20
31677;DHT22;18385;51.572;6.578;2022-12-31T19:50:17;18.20;56.10
31677;DHT22;18385;51.572;6.578;2022-12-31T19:52:44;18.30;56.00
31677;DHT22;18385;51.572;6.578;2022-12-31T19:55:12;18.30;55.90
31677;DHT22;18385;51.572;6.578;2022-12-31T19:57:39;18.30;55.70
31677;DHT22;18385;51.572;6.578;2022-12-31T20:00:05;18.30;55.70
31677;DHT22;18385;51.572;6.578;2022-12-31T20:02:37;18.30;55.60
31677;DHT22;18385;51.572;6.578;2022-12-31T20:05:03;18.30;55.40
31677;DHT22;18385;51.572;6.578;2022-12-31T20:07:29;18.30;55.40
31677;DHT22;18385;51.572;6.578;2022-12-31T20:09:54;18.30;55.30
31677;DHT22;18385;51.572;6.578;2022-12-31T20:12:20;18.30;55.00